createdAt,value
2023-05-02T00:00:16.233Z,4.30
2023-05-02T00:02:46.383Z,4.70
2023-05-02T00:05:13.929Z,3.90
2023-05-02T00:07:41.160Z,3.60
2023-05-02T00:10:09.329Z,3.60
2023-05-02T00:12:36.592Z,4.30
2023-05-02T00:15:04.656Z,4.20
2023-05-02T00:17:32.224Z,3.70
2023-05-02T00:20:09.618Z,3.30
2023-05-02T00:22:44.251Z,3.50
2023-05-02T00:25:16.439Z,3.20
2023-05-02T00:27:47.102Z,2.90
2023-05-02T00:30:15.120Z,3.20
2023-05-02T00:32:42.705Z,3.20
2023-05-02T00:35:10.592Z,3.50
2023-05-02T00:37:39.299Z,3.40
2023-05-02T00:40:08.431Z,2.70
2023-05-02T00:42:36.837Z,2.40
2023-05-02T00:45:06.702Z,3.50
2023-05-02T00:47:34.591Z,3.60
2023-05-02T00:50:02.638Z,3.40
2023-05-02T00:52:31.633Z,3.70
2023-05-02T00:55:00.641Z,3.30
2023-05-02T00:57:27.909Z,3.60
2023-05-02T00:59:55.350Z,3.00
2023-05-02T01:02:22.749Z,3.10
2023-05-02T01:05:00.815Z,3.40
2023-05-02T01:07:51.105Z,3.40
2023-05-02T01:10:21.439Z,3.60
2023-05-02T01:13:00.914Z,3.70
2023-05-02T01:15:31.637Z,4.30
2023-05-02T01:18:01.085Z,4.10
2023-05-02T01:20:29.251Z,3.90
2023-05-02T01:22:58.566Z,4.50
2023-05-02T01:26:03.865Z,4.40
2023-05-02T01:28:53.648Z,4.00
2023-05-02T01:31:20.822Z,4.00
2023-05-02T01:33:48.558Z,4.60
2023-05-02T01:36:17.379Z,4.80
2023-05-02T01:38:45.707Z,4.80
2023-05-02T01:41:14.292Z,4.30
2023-05-02T01:43:41.647Z,3.50
2023-05-02T01:46:13.836Z,4.50
2023-05-02T01:48:43.849Z,3.20
2023-05-02T01:51:12.627Z,4.00
2023-05-02T01:53:40.833Z,3.70
2023-05-02T01:56:07.883Z,3.50
2023-05-02T01:58:35.021Z,3.40
2023-05-02T02:01:04.433Z,3.80
2023-05-02T02:03:34.086Z,3.50
2023-05-02T02:06:01.401Z,3.00
2023-05-02T02:08:30.056Z,3.40
2023-05-02T02:11:02.018Z,3.50
2023-05-02T02:13:35.994Z,3.10
2023-05-02T02:16:06.041Z,3.70
2023-05-02T02:18:37.606Z,3.20
2023-05-02T02:21:12.222Z,3.30
2023-05-02T02:23:39.469Z,3.40
2023-05-02T02:26:14.610Z,2.90
2023-05-02T02:28:43.094Z,3.60
2023-05-02T02:31:10.761Z,2.80
2023-05-02T02:33:38.379Z,2.80
2023-05-02T02:36:23.996Z,3.00
2023-05-02T02:38:56.426Z,2.90
2023-05-02T02:41:29.558Z,2.50
2023-05-02T02:44:26.300Z,2.50
2023-05-02T02:47:23.364Z,2.40
2023-05-02T02:50:07.913Z,2.40
2023-05-02T02:52:48.064Z,2.60
2023-05-02T02:55:48.190Z,2.10
2023-05-02T02:58:41.051Z,2.60
2023-05-02T03:01:20.040Z,2.30
2023-05-02T03:03:51.274Z,2.50
2023-05-02T03:06:20.536Z,2.80
2023-05-02T03:08:49.307Z,2.80
2023-05-02T03:11:24.442Z,2.60
2023-05-02T03:13:53.546Z,2.60
2023-05-02T03:16:36.964Z,2.50
2023-05-02T03:19:12.019Z,2.60
2023-05-02T03:21:47.155Z,3.00
2023-05-02T03:24:19.507Z,2.80
2023-05-02T03:26:50.353Z,2.70
2023-05-02T03:29:22.008Z,2.60
2023-05-02T03:31:49.659Z,2.70
2023-05-02T03:34:16.905Z,2.60
2023-05-02T03:36:54.057Z,2.40
2023-05-02T03:39:26.389Z,2.30
2023-05-02T03:42:04.595Z,2.00
2023-05-02T03:44:31.843Z,2.20
2023-05-02T03:46:58.980Z,2.30
2023-05-02T03:49:28.395Z,2.20
2023-05-02T03:51:55.648Z,2.50
2023-05-02T03:54:29.463Z,2.50
2023-05-02T03:57:08.381Z,2.30
2023-05-02T03:59:37.582Z,2.30
2023-05-02T04:02:09.495Z,2.20
2023-05-02T04:04:41.377Z,2.60
2023-05-02T04:07:18.897Z,2.10
2023-05-02T04:09:49.649Z,1.90
2023-05-02T04:12:19.036Z,1.90
2023-05-02T04:14:51.624Z,2.60
2023-05-02T04:17:21.534Z,2.30
2023-05-02T04:19:50.318Z,2.30
2023-05-02T04:22:18.719Z,2.00
2023-05-02T04:24:52.306Z,1.90
2023-05-02T04:27:22.010Z,2.10
2023-05-02T04:29:50.037Z,2.40
2023-05-02T04:32:18.310Z,2.30
2023-05-02T04:34:46.183Z,2.60
2023-05-02T04:37:13.944Z,2.40
2023-05-02T04:39:43.245Z,1.90
2023-05-02T04:42:36.360Z,1.80
2023-05-02T04:45:12.722Z,2.20
2023-05-02T04:47:52.820Z,2.60
2023-05-02T04:50:20.165Z,2.70
2023-05-02T04:52:50.457Z,2.90
2023-05-02T04:55:17.505Z,2.90
2023-05-02T04:57:46.606Z,3.60
2023-05-02T05:00:16.118Z,1.90
2023-05-02T05:02:44.308Z,2.20
2023-05-02T05:05:13.716Z,1.70
2023-05-02T05:07:41.134Z,1.80
2023-05-02T05:10:11.375Z,2.10
2023-05-02T05:12:46.565Z,1.70
2023-05-02T05:15:14.696Z,1.50
2023-05-02T05:17:46.819Z,1.60
2023-05-02T05:20:14.224Z,1.70
2023-05-02T05:22:42.601Z,1.80
2023-05-02T05:25:11.819Z,1.60
2023-05-02T05:27:40.080Z,1.80
2023-05-02T05:30:09.403Z,2.10
2023-05-02T05:32:36.986Z,1.70
2023-05-02T05:35:05.012Z,2.30
2023-05-02T05:37:32.566Z,2.10
2023-05-02T05:40:22.045Z,2.10
2023-05-02T05:42:54.237Z,1.90
2023-05-02T05:45:31.293Z,1.90
2023-05-02T05:47:58.407Z,2.50
2023-05-02T05:50:32.045Z,2.40
2023-05-02T05:53:01.989Z,2.70
2023-05-02T05:55:32.249Z,2.40
2023-05-02T05:58:07.633Z,2.80
2023-05-02T06:00:41.986Z,2.20
2023-05-02T06:03:15.166Z,2.80
2023-05-02T06:05:42.596Z,2.30
2023-05-02T06:08:09.754Z,2.40
2023-05-02T06:10:40.284Z,2.40
2023-05-02T06:13:08.043Z,2.50
2023-05-02T06:15:38.633Z,2.30
2023-05-02T06:18:07.304Z,2.20
2023-05-02T06:20:37.002Z,1.70
2023-05-02T06:23:04.630Z,2.10
2023-05-02T06:25:33.236Z,2.00
2023-05-02T06:28:02.724Z,2.30
2023-05-02T06:30:29.771Z,1.80
2023-05-02T06:33:01.972Z,2.00
2023-05-02T06:35:29.291Z,2.20
2023-05-02T06:38:02.468Z,2.00
2023-05-02T06:40:29.947Z,1.90
2023-05-02T06:43:00.230Z,1.50
2023-05-02T06:45:33.723Z,2.20
2023-05-02T06:48:03.554Z,2.30
2023-05-02T06:50:30.930Z,1.90
2023-05-02T06:52:59.005Z,2.20
2023-05-02T06:55:27.382Z,1.70
2023-05-02T06:57:55.354Z,2.00
2023-05-02T07:00:22.573Z,5.40
2023-05-02T07:03:11.508Z,1.70
2023-05-02T07:05:39.142Z,1.70
2023-05-02T07:08:06.999Z,1.70
2023-05-02T07:10:34.159Z,1.40
2023-05-02T07:13:01.393Z,2.00
2023-05-02T07:15:28.460Z,2.00
2023-05-02T07:17:55.614Z,1.60
2023-05-02T07:20:23.430Z,1.60
2023-05-02T07:22:50.887Z,1.50
2023-05-02T07:25:18.320Z,1.50
2023-05-02T07:27:46.047Z,1.90
2023-05-02T07:30:13.830Z,2.50
2023-05-02T07:32:40.959Z,2.20
2023-05-02T07:35:08.480Z,2.20
2023-05-02T07:37:37.958Z,2.30
2023-05-02T07:40:06.237Z,1.90
2023-05-02T07:42:34.407Z,1.60
2023-05-02T07:45:01.482Z,1.70
2023-05-02T07:47:29.528Z,1.90
2023-05-02T07:49:57.067Z,2.20
2023-05-02T07:52:24.517Z,2.10
2023-05-02T07:54:52.164Z,2.30
2023-05-02T07:57:19.479Z,2.10
2023-05-02T07:59:46.531Z,2.60
2023-05-02T08:02:14.291Z,2.50
2023-05-02T08:04:43.462Z,2.60
2023-05-02T08:07:10.804Z,2.40
2023-05-02T08:09:38.015Z,2.20
2023-05-02T08:12:05.675Z,2.60
2023-05-02T08:14:32.648Z,2.80
2023-05-02T08:20:07.106Z,2.80
2023-05-02T08:22:34.517Z,2.50
2023-05-02T08:25:01.885Z,2.20
2023-05-02T08:27:28.916Z,2.50
2023-05-02T08:30:00.638Z,2.50
2023-05-02T08:32:29.523Z,2.30
2023-05-02T08:34:59.546Z,2.00
2023-05-02T08:37:26.921Z,2.30
2023-05-02T08:39:53.931Z,2.40
2023-05-02T08:42:23.327Z,3.20
2023-05-02T08:44:50.569Z,2.70
2023-05-02T08:47:18.950Z,2.30
2023-05-02T08:49:46.513Z,2.90
2023-05-02T08:52:13.726Z,1.80
2023-05-02T08:54:41.892Z,2.40
2023-05-02T08:57:09.059Z,2.60
2023-05-02T08:59:36.104Z,2.00
2023-05-02T09:02:27.926Z,1.60
2023-05-02T09:04:56.185Z,1.70
2023-05-02T09:07:23.447Z,1.60
2023-05-02T09:09:51.412Z,2.40
2023-05-02T09:12:26.533Z,1.80
2023-05-02T09:15:32.718Z,1.50
2023-05-02T09:18:21.141Z,1.50
2023-05-02T09:20:51.690Z,1.80
2023-05-02T09:23:21.013Z,2.00
2023-05-02T09:25:52.977Z,1.70
2023-05-02T09:28:20.228Z,1.80
2023-05-02T09:30:48.206Z,1.90
2023-05-02T09:33:16.547Z,2.00
2023-05-02T09:35:54.284Z,2.00
2023-05-02T09:38:27.374Z,1.80
2023-05-02T09:40:57.799Z,1.80
2023-05-02T09:43:25.158Z,1.80
2023-05-02T09:46:02.719Z,1.70
2023-05-02T09:48:31.140Z,2.00
2023-05-02T09:50:58.276Z,2.00
2023-05-02T09:53:27.743Z,1.70
2023-05-02T09:56:03.672Z,1.90
2023-05-02T09:58:31.336Z,1.90
2023-05-02T10:01:07.198Z,1.50
2023-05-02T10:03:38.212Z,1.60
2023-05-02T10:06:05.805Z,1.90
2023-05-02T10:08:33.869Z,1.40
2023-05-02T10:11:02.248Z,1.60
2023-05-02T10:13:32.879Z,1.80
2023-05-02T10:16:05.081Z,1.60
2023-05-02T10:19:04.118Z,1.60
2023-05-02T10:21:31.395Z,1.60
2023-05-02T10:23:59.496Z,1.70
2023-05-02T10:26:28.255Z,1.30
2023-05-02T10:28:57.777Z,1.70
2023-05-02T10:31:25.737Z,1.60
2023-05-02T10:33:53.076Z,1.60
2023-05-02T10:36:24.061Z,2.20
2023-05-02T10:38:51.497Z,1.90
2023-05-02T10:41:23.474Z,1.50
2023-05-02T10:43:50.899Z,1.60
2023-05-02T10:46:38.086Z,1.40
2023-05-02T10:49:15.296Z,1.60
2023-05-02T10:51:43.075Z,1.40
2023-05-02T10:54:16.661Z,1.50
2023-05-02T10:57:03.898Z,1.50
2023-05-02T10:59:41.288Z,1.70
2023-05-02T11:02:25.556Z,1.50
2023-05-02T11:05:06.015Z,1.60
2023-05-02T11:07:34.374Z,1.20
2023-05-02T11:10:22.732Z,1.40
2023-05-02T11:12:52.162Z,1.40
2023-05-02T11:15:28.922Z,1.70
2023-05-02T11:18:11.697Z,1.50
2023-05-02T11:20:40.324Z,1.40
2023-05-02T11:23:23.031Z,1.40
2023-05-02T11:25:54.400Z,1.50
2023-05-02T11:28:37.198Z,1.60
2023-05-02T11:31:05.530Z,2.90
2023-05-02T11:33:36.011Z,1.30
2023-05-02T11:36:16.714Z,1.60
2023-05-02T11:38:44.472Z,2.30
2023-05-02T11:41:15.081Z,1.50
2023-05-02T11:43:42.836Z,1.60
2023-05-02T11:46:20.488Z,2.30
2023-05-02T11:48:51.185Z,1.80
2023-05-02T11:51:23.038Z,1.80
2023-05-02T11:53:50.693Z,2.20
2023-05-02T11:56:17.842Z,2.10
2023-05-02T11:58:48.266Z,1.80
2023-05-02T12:01:19.008Z,2.10
2023-05-02T12:04:07.831Z,1.50
2023-05-02T12:06:35.475Z,1.50
2023-05-02T12:09:20.609Z,1.80
2023-05-02T12:11:52.875Z,1.60
2023-05-02T12:14:30.152Z,1.40
2023-05-02T12:16:58.665Z,1.60
2023-05-02T12:19:25.889Z,1.70
2023-05-02T12:21:53.257Z,1.40
2023-05-02T12:24:21.592Z,1.60
2023-05-02T12:26:49.757Z,1.70
2023-05-02T12:29:18.192Z,2.40
2023-05-02T12:31:55.145Z,1.60
2023-05-02T12:34:35.288Z,1.80
2023-05-02T12:37:03.664Z,1.80
2023-05-02T12:39:42.008Z,1.40
2023-05-02T12:42:16.051Z,1.70
2023-05-02T12:44:45.947Z,1.30
2023-05-02T12:47:14.448Z,1.30
2023-05-02T12:49:57.679Z,1.60
2023-05-02T12:52:51.251Z,1.50
2023-05-02T12:55:28.397Z,1.90
2023-05-02T12:58:05.290Z,1.70
2023-05-02T13:00:33.197Z,1.50
2023-05-02T13:03:00.488Z,1.50
2023-05-02T13:05:27.649Z,1.50
2023-05-02T13:07:56.860Z,1.60
2023-05-02T13:10:25.336Z,1.80
2023-05-02T13:12:53.651Z,1.60
2023-05-02T13:15:21.318Z,2.00
2023-05-02T13:17:51.056Z,1.70
2023-05-02T13:20:19.164Z,1.70
2023-05-02T13:22:46.305Z,1.60
2023-05-02T13:25:13.351Z,2.00
2023-05-02T13:27:41.418Z,1.70
2023-05-02T13:30:10.309Z,1.60
2023-05-02T13:32:37.761Z,1.60
2023-05-02T13:35:05.960Z,1.70
2023-05-02T13:37:33.217Z,1.70
2023-05-02T13:40:02.166Z,1.50
2023-05-02T13:42:29.567Z,1.80
2023-05-02T13:44:56.819Z,1.60
2023-05-02T13:47:24.569Z,1.70
2023-05-02T13:49:51.554Z,1.60
2023-05-02T13:52:19.193Z,1.50
2023-05-02T13:54:46.653Z,1.70
2023-05-02T13:57:13.806Z,1.50
2023-05-02T13:59:41.154Z,1.90
2023-05-02T14:02:08.371Z,1.50
2023-05-02T14:04:35.623Z,1.70
2023-05-02T14:07:04.052Z,1.70
2023-05-02T14:09:32.214Z,1.80
2023-05-02T14:11:59.161Z,1.60
2023-05-02T14:14:26.309Z,1.60
2023-05-02T14:16:54.214Z,1.70
2023-05-02T14:19:21.250Z,1.50
2023-05-02T14:21:49.836Z,1.50
2023-05-02T14:24:18.636Z,1.80
2023-05-02T14:26:46.080Z,1.70
2023-05-02T14:29:14.257Z,1.60
2023-05-02T14:31:46.277Z,1.20
2023-05-02T14:34:13.485Z,1.30
2023-05-02T14:36:40.729Z,1.50
2023-05-02T14:39:07.877Z,1.70
2023-05-02T14:41:35.036Z,1.30
2023-05-02T14:44:03.608Z,1.60
2023-05-02T14:46:31.424Z,1.30
2023-05-02T14:48:58.526Z,1.70
2023-05-02T14:51:26.492Z,1.70
2023-05-02T14:53:54.593Z,1.70
2023-05-02T14:56:21.919Z,1.80
2023-05-02T14:58:49.277Z,1.70
2023-05-02T15:01:17.926Z,1.80
2023-05-02T15:04:04.273Z,1.70
2023-05-02T15:06:33.488Z,1.70
2023-05-02T15:09:01.971Z,1.80
2023-05-02T15:11:28.993Z,1.90
2023-05-02T15:13:58.836Z,2.30
2023-05-02T15:16:27.629Z,2.50
2023-05-02T15:18:57.615Z,1.40
2023-05-02T15:21:24.659Z,1.70
2023-05-02T15:23:51.807Z,1.80
2023-05-02T15:26:19.077Z,1.30
2023-05-02T15:28:46.110Z,1.80
2023-05-02T15:31:13.266Z,1.50
2023-05-02T15:33:40.924Z,2.00
2023-05-02T15:36:08.591Z,1.50
2023-05-02T15:38:39.639Z,1.50
2023-05-02T15:41:08.313Z,1.40
2023-05-02T15:43:35.672Z,1.60
2023-05-02T15:46:02.759Z,2.40
2023-05-02T15:48:31.510Z,1.50
2023-05-02T15:50:58.759Z,1.60
2023-05-02T15:53:26.021Z,1.60
2023-05-02T15:55:53.572Z,1.10
2023-05-02T15:58:20.925Z,1.30
2023-05-02T16:00:48.280Z,1.50
2023-05-02T16:03:15.970Z,1.60
2023-05-02T16:05:43.204Z,1.30
2023-05-02T16:08:10.753Z,1.60
2023-05-02T16:10:40.574Z,1.60
2023-05-02T16:13:07.722Z,1.80
2023-05-02T16:15:34.894Z,1.80
2023-05-02T16:18:02.683Z,1.60
2023-05-02T16:20:32.650Z,2.20
2023-05-02T16:23:00.210Z,2.00
2023-05-02T16:25:27.257Z,1.80
2023-05-02T16:27:55.331Z,2.20
2023-05-02T16:30:22.691Z,1.90
2023-05-02T16:32:50.060Z,2.00
2023-05-02T16:35:17.704Z,2.30
2023-05-02T16:37:44.754Z,4.70
2023-05-02T16:40:15.294Z,2.70
2023-05-02T16:42:44.599Z,2.40
2023-05-02T16:45:15.523Z,2.80
2023-05-02T16:47:43.414Z,5.10
2023-05-02T16:50:13.167Z,3.20
2023-05-02T16:52:44.952Z,2.90
2023-05-02T16:55:16.785Z,2.70
2023-05-02T16:57:44.078Z,3.50
2023-05-02T17:00:12.608Z,2.60
2023-05-02T17:02:40.027Z,2.60
2023-05-02T17:05:07.768Z,3.00
2023-05-02T17:07:37.797Z,2.70
2023-05-02T17:10:06.126Z,2.90
2023-05-02T17:12:33.541Z,2.90
2023-05-02T17:15:02.197Z,2.60
2023-05-02T17:17:31.148Z,2.90
2023-05-02T17:19:58.490Z,2.80
2023-05-02T17:22:26.651Z,2.80
2023-05-02T17:24:55.014Z,2.80
2023-05-02T17:27:22.068Z,3.00
2023-05-02T17:29:49.121Z,3.50
2023-05-02T17:32:17.263Z,5.30
2023-05-02T17:34:45.753Z,5.50
2023-05-02T17:37:13.328Z,5.70
2023-05-02T17:39:41.401Z,6.40
2023-05-02T17:42:08.450Z,5.50
2023-05-02T17:44:38.579Z,5.70
2023-05-02T17:47:06.543Z,6.50
2023-05-02T17:49:34.131Z,7.10
2023-05-02T17:52:02.086Z,7.40
2023-05-02T17:54:29.655Z,8.60
2023-05-02T17:56:57.518Z,9.80
2023-05-02T17:59:24.784Z,10.10
2023-05-02T18:01:52.289Z,12.00
2023-05-02T18:04:19.489Z,16.40
2023-05-02T18:06:46.467Z,13.50
2023-05-02T18:09:13.640Z,13.00
2023-05-02T18:11:40.778Z,12.90
2023-05-02T18:14:07.730Z,11.00
2023-05-02T18:16:36.630Z,9.40
2023-05-02T18:19:04.214Z,9.20
2023-05-02T18:21:35.735Z,8.40
2023-05-02T18:24:02.986Z,7.80
2023-05-02T18:26:30.234Z,8.40
2023-05-02T18:28:57.616Z,8.00
2023-05-02T18:31:24.658Z,8.00
2023-05-02T18:33:55.773Z,7.90
2023-05-02T18:36:27.497Z,7.40
2023-05-02T18:39:00.753Z,7.80
2023-05-02T18:41:27.856Z,6.50
2023-05-02T18:43:55.474Z,5.90
2023-05-02T18:46:23.374Z,4.60
2023-05-02T18:48:50.499Z,4.40
2023-05-02T18:51:21.113Z,4.60
2023-05-02T18:53:49.400Z,4.00
2023-05-02T18:56:16.642Z,3.60
2023-05-02T18:58:43.700Z,3.60
2023-05-02T19:01:16.897Z,2.80
2023-05-02T19:03:44.401Z,3.20
2023-05-02T19:06:12.027Z,2.80
2023-05-02T19:08:40.551Z,2.40
2023-05-02T19:11:07.736Z,2.80
2023-05-02T19:13:34.805Z,3.60
2023-05-02T19:16:01.957Z,3.60
2023-05-02T19:18:29.126Z,3.50
2023-05-02T19:20:56.336Z,3.10
2023-05-02T19:23:23.398Z,3.90
2023-05-02T19:25:50.591Z,3.70
2023-05-02T19:28:22.636Z,3.80
2023-05-02T19:30:49.660Z,4.00
2023-05-02T19:33:16.954Z,3.70
2023-05-02T19:35:44.978Z,3.90
2023-05-02T19:38:12.849Z,3.50
2023-05-02T19:40:40.099Z,3.80
2023-05-02T19:43:07.051Z,3.30
2023-05-02T19:45:34.114Z,3.00
2023-05-02T19:48:01.407Z,3.00
2023-05-02T19:50:28.904Z,3.50
2023-05-02T19:52:56.885Z,4.20
2023-05-02T19:55:24.055Z,3.60
2023-05-02T19:57:51.177Z,4.00
2023-05-02T20:00:18.559Z,3.40
2023-05-02T20:02:46.183Z,3.60
2023-05-02T20:05:13.546Z,3.70
2023-05-02T20:07:42.762Z,4.00
2023-05-02T20:10:10.110Z,3.40
2023-05-02T20:12:39.617Z,3.10
2023-05-02T20:15:07.269Z,3.20
2023-05-02T20:17:34.461Z,3.60
2023-05-02T20:20:07.519Z,3.30
2023-05-02T20:23:02.636Z,3.00
2023-05-02T20:25:29.968Z,3.70
2023-05-02T20:27:59.778Z,3.40
2023-05-02T20:30:27.154Z,3.90
2023-05-02T20:32:55.704Z,4.20
2023-05-02T20:35:23.064Z,4.20
2023-05-02T20:39:12.185Z,4.30
2023-05-02T20:41:39.490Z,4.20
2023-05-02T20:44:06.650Z,3.50
2023-05-02T20:46:34.180Z,2.80
2023-05-02T20:49:05.967Z,2.80
2023-05-02T20:51:33.010Z,3.00
2023-05-02T20:54:00.262Z,3.00
2023-05-02T20:56:27.624Z,3.10
2023-05-02T20:58:56.214Z,3.00
2023-05-02T21:01:23.357Z,3.60
2023-05-02T21:03:50.738Z,3.30
2023-05-02T21:06:19.596Z,3.20
2023-05-02T21:08:46.959Z,3.10
2023-05-02T21:11:15.650Z,2.60
2023-05-02T21:13:43.633Z,2.70
2023-05-02T21:16:16.727Z,3.10
2023-05-02T21:18:46.519Z,3.00
2023-05-02T21:21:17.989Z,2.80
2023-05-02T21:23:51.978Z,3.10
2023-05-02T21:26:20.574Z,2.50
2023-05-02T21:28:47.923Z,2.50
2023-05-02T21:31:18.691Z,2.60
2023-05-02T21:33:46.109Z,3.10
2023-05-02T21:36:13.055Z,2.80
2023-05-02T21:38:42.863Z,2.50
2023-05-02T21:41:09.808Z,2.70
2023-05-02T21:43:39.193Z,2.30
2023-05-02T21:46:07.295Z,2.10
2023-05-02T21:48:35.152Z,2.50
2023-05-02T21:51:07.484Z,2.80
2023-05-02T21:53:34.587Z,2.50
2023-05-02T21:56:01.729Z,2.10
2023-05-02T21:58:32.279Z,1.60
2023-05-02T22:00:59.759Z,2.30
2023-05-02T22:03:42.631Z,1.70
2023-05-02T22:06:10.778Z,1.70
2023-05-02T22:08:38.273Z,1.70
2023-05-02T22:11:10.744Z,1.60
2023-05-02T22:13:38.506Z,1.80
2023-05-02T22:16:06.974Z,1.60
2023-05-02T22:18:35.887Z,2.00
2023-05-02T22:21:03.844Z,1.40
2023-05-02T22:23:31.370Z,1.70
2023-05-02T22:25:59.031Z,1.60
2023-05-02T22:28:27.245Z,1.50
2023-05-02T22:30:59.011Z,1.70
2023-05-02T22:33:30.664Z,1.50
2023-05-02T22:36:18.177Z,1.70
2023-05-02T22:38:46.148Z,1.60
2023-05-02T22:41:13.400Z,1.70
2023-05-02T22:43:40.548Z,1.20
2023-05-02T22:46:07.627Z,1.20
2023-05-02T22:48:34.746Z,1.50
2023-05-02T22:51:02.404Z,1.70
2023-05-02T22:53:38.981Z,1.30
2023-05-02T22:56:07.056Z,1.60
2023-05-02T22:58:34.101Z,1.60
2023-05-02T23:01:05.257Z,1.60
2023-05-02T23:03:35.686Z,1.50
2023-05-02T23:06:03.675Z,1.80
2023-05-02T23:08:30.881Z,1.90
2023-05-02T23:10:57.939Z,1.70
2023-05-02T23:13:26.234Z,1.90
2023-05-02T23:16:02.622Z,2.10
2023-05-02T23:18:29.838Z,1.70
2023-05-02T23:20:57.088Z,1.40
2023-05-02T23:23:24.547Z,1.80
2023-05-02T23:25:52.613Z,1.70
2023-05-02T23:28:19.776Z,1.50
2023-05-02T23:30:46.925Z,1.60
2023-05-02T23:33:16.759Z,1.70
2023-05-02T23:35:43.776Z,1.70
2023-05-02T23:38:10.968Z,1.60
2023-05-02T23:40:39.421Z,1.80
2023-05-02T23:43:08.846Z,1.80
2023-05-02T23:45:36.193Z,1.80
2023-05-02T23:48:04.762Z,2.00
2023-05-02T23:50:34.795Z,2.70
2023-05-02T23:53:01.845Z,2.30
2023-05-02T23:55:32.188Z,2.00
2023-05-02T23:58:01.683Z,2.10
